createdAt,value
2023-03-01T00:01:09.040Z,40.74
2023-03-01T00:03:36.384Z,40.97
2023-03-01T00:06:04.009Z,41.16
2023-03-01T00:08:32.010Z,40.99
2023-03-01T00:11:09.408Z,40.70
2023-03-01T00:13:36.968Z,40.95
2023-03-01T00:16:10.040Z,41.31
2023-03-01T00:18:36.923Z,40.98
2023-03-01T00:21:03.915Z,41.31
2023-03-01T00:23:30.871Z,41.38
2023-03-01T00:25:57.644Z,41.57
2023-03-01T00:28:24.637Z,41.77
2023-03-01T00:30:51.484Z,42.28
2023-03-01T00:33:18.996Z,42.16
2023-03-01T00:35:45.874Z,42.42
2023-03-01T00:38:12.636Z,42.53
2023-03-01T00:40:39.392Z,42.22
2023-03-01T00:43:06.869Z,42.29
2023-03-01T00:45:34.157Z,42.28
2023-03-01T00:48:00.960Z,42.13
2023-03-01T00:50:28.319Z,42.28
2023-03-01T00:52:56.796Z,41.88
2023-03-01T00:55:24.803Z,42.21
2023-03-01T00:57:52.141Z,41.79
2023-03-01T01:00:20.031Z,41.68
2023-03-01T01:02:48.428Z,42.12
2023-03-01T01:05:15.807Z,42.34
2023-03-01T01:07:42.568Z,42.47
2023-03-01T01:10:13.948Z,42.59
2023-03-01T01:12:40.819Z,42.44
2023-03-01T01:15:08.089Z,42.84
2023-03-01T01:17:36.117Z,42.83
2023-03-01T01:20:03.031Z,42.79
2023-03-01T01:22:30.279Z,42.66
2023-03-01T01:24:57.158Z,43.01
2023-03-01T01:27:25.113Z,42.43
2023-03-01T01:29:54.062Z,42.76
2023-03-01T01:32:20.885Z,42.28
2023-03-01T01:34:47.654Z,42.16
2023-03-01T01:37:14.463Z,41.96
2023-03-01T01:39:41.246Z,42.05
2023-03-01T01:42:19.066Z,41.92
2023-03-01T01:44:48.750Z,41.64
2023-03-01T01:47:23.137Z,41.77
2023-03-01T01:49:54.774Z,42.11
2023-03-01T01:52:35.579Z,41.68
2023-03-01T01:55:07.218Z,41.83
2023-03-01T01:57:41.635Z,42.19
2023-03-01T02:00:18.420Z,41.66
2023-03-01T02:02:50.172Z,41.71
2023-03-01T02:05:17.024Z,42.18
2023-03-01T02:07:44.633Z,42.07
2023-03-01T02:10:11.562Z,42.13
2023-03-01T02:12:40.636Z,42.21
2023-03-01T02:15:07.771Z,42.23
2023-03-01T02:17:35.031Z,42.11
2023-03-01T02:20:20.807Z,42.03
2023-03-01T02:22:48.131Z,41.57
2023-03-01T02:25:20.491Z,41.90
2023-03-01T02:28:14.952Z,42.46
2023-03-01T02:31:03.493Z,42.80
2023-03-01T02:33:37.062Z,43.27
2023-03-01T02:36:12.485Z,43.08
2023-03-01T02:38:39.362Z,42.94
2023-03-01T02:41:08.146Z,42.94
2023-03-01T02:43:36.239Z,43.42
2023-03-01T02:46:26.168Z,43.34
2023-03-01T02:49:00.127Z,42.89
2023-03-01T02:51:47.996Z,43.00
2023-03-01T02:54:23.464Z,42.79
2023-03-01T02:56:50.997Z,42.39
2023-03-01T02:59:23.452Z,42.93
2023-03-01T03:01:50.720Z,42.49
2023-03-01T03:04:21.896Z,42.81
2023-03-01T03:06:51.799Z,42.99
2023-03-01T03:09:19.329Z,43.33
2023-03-01T03:11:46.642Z,43.49
2023-03-01T03:14:15.794Z,43.25
2023-03-01T03:16:50.786Z,43.31
2023-03-01T03:19:20.070Z,43.36
2023-03-01T03:21:47.361Z,43.28
2023-03-01T03:24:14.156Z,43.55
2023-03-01T03:26:40.924Z,43.39
2023-03-01T03:29:07.778Z,43.52
2023-03-01T03:31:34.827Z,43.14
2023-03-01T03:34:01.676Z,43.69
2023-03-01T03:36:28.637Z,43.64
2023-03-01T03:38:55.570Z,44.01
2023-03-01T03:41:22.259Z,44.37
2023-03-01T03:43:50.013Z,44.69
2023-03-01T03:46:18.097Z,45.01
2023-03-01T03:48:46.756Z,45.25
2023-03-01T03:51:18.276Z,45.01
2023-03-01T03:53:46.324Z,45.14
2023-03-01T03:56:13.575Z,45.19
2023-03-01T03:58:40.495Z,45.04
2023-03-01T04:01:07.554Z,45.58
2023-03-01T04:03:36.040Z,45.36
2023-03-01T04:06:03.818Z,45.11
2023-03-01T04:08:30.979Z,45.25
2023-03-01T04:11:21.431Z,45.42
2023-03-01T04:13:48.303Z,45.38
2023-03-01T04:16:15.096Z,45.25
2023-03-01T04:18:41.825Z,45.33
2023-03-01T04:21:08.610Z,45.29
2023-03-01T04:23:36.174Z,45.53
2023-03-01T04:26:03.007Z,45.82
2023-03-01T04:28:33.751Z,45.86
2023-03-01T04:31:14.324Z,45.88
2023-03-01T04:33:49.783Z,46.20
2023-03-01T04:36:18.594Z,46.58
2023-03-01T04:38:48.931Z,47.23
2023-03-01T04:41:18.386Z,47.10
2023-03-01T04:43:45.282Z,47.29
2023-03-01T04:46:15.892Z,47.20
2023-03-01T04:48:44.918Z,47.21
2023-03-01T04:51:14.528Z,47.51
2023-03-01T04:53:42.893Z,47.77
2023-03-01T04:56:10.180Z,47.88
2023-03-01T04:58:37.619Z,48.00
2023-03-01T05:01:16.357Z,47.74
2023-03-01T05:03:49.213Z,47.87
2023-03-01T05:06:17.882Z,48.11
2023-03-01T05:08:45.173Z,48.35
2023-03-01T05:11:12.848Z,48.05
2023-03-01T05:13:40.763Z,47.94
2023-03-01T05:16:12.243Z,48.49
2023-03-01T05:18:40.968Z,48.34
2023-03-01T05:21:13.675Z,48.33
2023-03-01T05:23:40.897Z,48.09
2023-03-01T05:26:16.228Z,48.62
2023-03-01T05:28:49.248Z,48.32
2023-03-01T05:31:16.788Z,48.59
2023-03-01T05:33:44.478Z,48.98
2023-03-01T05:36:11.593Z,49.08
2023-03-01T05:38:38.321Z,49.14
2023-03-01T05:41:05.218Z,48.56
2023-03-01T05:43:35.705Z,48.99
2023-03-01T05:46:02.619Z,48.55
2023-03-01T05:48:29.463Z,49.05
2023-03-01T05:50:56.283Z,48.86
2023-03-01T05:53:23.082Z,49.25
2023-03-01T05:55:50.813Z,48.97
2023-03-01T05:58:20.794Z,49.18
2023-03-01T06:00:49.389Z,49.34
2023-03-01T06:03:18.245Z,49.25
2023-03-01T06:05:45.638Z,49.62
2023-03-01T06:08:13.488Z,49.43
2023-03-01T06:10:41.768Z,49.28
2023-03-01T06:13:08.801Z,49.19
2023-03-01T06:15:35.584Z,49.80
2023-03-01T06:18:02.379Z,49.37
2023-03-01T06:20:30.185Z,49.68
2023-03-01T06:22:57.695Z,49.82
2023-03-01T06:25:27.420Z,49.50
2023-03-01T06:27:54.193Z,49.48
2023-03-01T06:30:22.924Z,49.47
2023-03-01T06:32:50.327Z,49.06
2023-03-01T06:35:19.078Z,49.57
2023-03-01T06:37:47.556Z,49.95
2023-03-01T06:40:14.986Z,49.79
2023-03-01T06:42:44.126Z,49.89
2023-03-01T06:45:11.438Z,49.38
2023-03-01T06:47:38.388Z,50.01
2023-03-01T06:50:05.602Z,49.44
2023-03-01T06:52:32.707Z,49.69
2023-03-01T06:54:59.533Z,49.85
2023-03-01T06:57:26.361Z,49.93
2023-03-01T06:59:53.136Z,49.70
2023-03-01T07:02:20.192Z,50.19
2023-03-01T07:04:47.162Z,50.26
2023-03-01T07:07:13.983Z,50.01
2023-03-01T07:09:40.758Z,49.71
2023-03-01T07:12:07.816Z,49.90
2023-03-01T07:14:34.615Z,49.77
2023-03-01T07:17:01.462Z,49.85
2023-03-01T07:19:28.390Z,49.32
2023-03-01T07:21:56.488Z,49.37
2023-03-01T07:24:23.769Z,49.00
2023-03-01T07:26:51.597Z,49.20
2023-03-01T07:29:19.061Z,49.16
2023-03-01T07:31:46.282Z,48.83
2023-03-01T07:34:13.349Z,48.79
2023-03-01T07:36:46.349Z,48.77
2023-03-01T07:39:13.223Z,48.38
2023-03-01T07:41:40.094Z,48.34
2023-03-01T07:44:06.851Z,48.43
2023-03-01T07:46:33.833Z,48.46
2023-03-01T07:49:00.698Z,48.48
2023-03-01T07:51:27.532Z,47.84
2023-03-01T07:53:54.369Z,47.93
2023-03-01T07:56:22.504Z,47.66
2023-03-01T07:58:50.990Z,47.34
2023-03-01T08:01:21.781Z,47.72
2023-03-01T08:03:49.065Z,47.84
2023-03-01T08:06:17.720Z,47.57
2023-03-01T08:08:45.280Z,47.32
2023-03-01T08:11:14.399Z,47.38
2023-03-01T08:13:41.685Z,47.50
2023-03-01T08:16:14.057Z,47.37
2023-03-01T08:18:41.134Z,47.48
2023-03-01T08:21:13.733Z,47.46
2023-03-01T08:23:41.610Z,47.56
2023-03-01T08:26:11.818Z,46.78
2023-03-01T08:28:38.933Z,46.81
2023-03-01T08:31:36.823Z,46.75
2023-03-01T08:34:10.324Z,46.39
2023-03-01T08:36:40.954Z,46.30
2023-03-01T08:39:09.809Z,45.84
2023-03-01T08:41:36.810Z,48.09
2023-03-01T08:44:04.157Z,47.88
2023-03-01T08:46:37.025Z,46.73
2023-03-01T08:49:12.699Z,46.83
2023-03-01T08:51:39.779Z,46.14
2023-03-01T08:54:19.137Z,45.96
2023-03-01T08:56:46.528Z,44.93
2023-03-01T08:59:15.305Z,45.14
2023-03-01T09:01:45.821Z,45.08
2023-03-01T09:04:13.634Z,44.59
2023-03-01T09:06:40.497Z,44.56
2023-03-01T09:09:07.884Z,44.54
2023-03-01T09:11:34.718Z,43.87
2023-03-01T09:14:01.443Z,44.26
2023-03-01T09:16:28.459Z,44.40
2023-03-01T09:18:56.029Z,44.20
2023-03-01T09:21:39.042Z,43.94
2023-03-01T09:24:14.632Z,43.94
2023-03-01T09:26:41.483Z,43.58
2023-03-01T09:29:10.605Z,43.41
2023-03-01T09:31:37.641Z,43.59
2023-03-01T09:34:04.371Z,43.21
2023-03-01T09:36:31.797Z,43.40
2023-03-01T09:38:59.701Z,43.29
2023-03-01T09:41:47.347Z,43.10
2023-03-01T09:44:32.284Z,43.62
2023-03-01T09:47:00.567Z,42.75
2023-03-01T09:49:36.227Z,42.21
2023-03-01T09:52:24.763Z,42.03
2023-03-01T09:54:58.137Z,41.85
2023-03-01T09:57:34.276Z,42.39
2023-03-01T10:00:37.969Z,42.29
2023-03-01T10:03:12.741Z,42.45
2023-03-01T10:06:04.953Z,42.29
2023-03-01T10:08:39.731Z,42.54
2023-03-01T10:11:25.395Z,42.47
2023-03-01T10:13:56.363Z,42.39
2023-03-01T10:16:35.281Z,43.24
2023-03-01T10:19:04.914Z,44.12
2023-03-01T10:21:37.411Z,43.80
2023-03-01T10:24:14.475Z,44.15
2023-03-01T10:27:00.239Z,43.87
2023-03-01T10:29:43.133Z,43.85
2023-03-01T10:32:12.157Z,43.91
2023-03-01T10:34:39.075Z,43.93
2023-03-01T10:37:13.412Z,43.48
2023-03-01T10:39:57.070Z,43.44
2023-03-01T10:42:29.782Z,43.21
2023-03-01T10:44:56.715Z,43.10
2023-03-01T10:47:26.386Z,43.65
2023-03-01T10:50:18.901Z,42.00
2023-03-01T10:52:56.877Z,41.43
2023-03-01T10:55:37.637Z,41.22
2023-03-01T10:58:21.961Z,40.01
2023-03-01T11:00:53.940Z,38.43
2023-03-01T11:03:30.138Z,38.32
2023-03-01T11:06:10.355Z,38.25
2023-03-01T11:08:44.402Z,37.16
2023-03-01T11:11:14.046Z,36.75
2023-03-01T11:14:06.582Z,35.98
2023-03-01T11:16:40.829Z,34.79
2023-03-01T11:19:10.585Z,34.40
2023-03-01T11:21:42.320Z,33.14
2023-03-01T11:24:15.872Z,31.88
2023-03-01T11:26:47.593Z,32.27
2023-03-01T11:29:26.519Z,32.66
2023-03-01T11:31:58.107Z,32.35
2023-03-01T11:34:40.420Z,33.15
2023-03-01T11:37:14.029Z,33.06
2023-03-01T11:40:04.712Z,33.58
2023-03-01T11:43:10.466Z,33.07
2023-03-01T11:46:20.693Z,33.96
2023-03-01T11:49:05.590Z,33.91
2023-03-01T11:51:39.997Z,33.53
2023-03-01T11:54:18.721Z,33.50
2023-03-01T11:56:52.282Z,33.66
2023-03-01T11:59:38.508Z,30.93
2023-03-01T12:02:20.245Z,29.81
2023-03-01T12:05:21.185Z,31.41
2023-03-01T12:08:02.135Z,34.63
2023-03-01T12:10:53.945Z,32.19
2023-03-01T12:13:42.567Z,31.61
2023-03-01T12:16:49.336Z,31.74
2023-03-01T12:19:24.045Z,32.03
2023-03-01T12:22:05.660Z,32.60
2023-03-01T12:24:58.441Z,32.43
2023-03-01T12:27:39.770Z,32.18
2023-03-01T12:30:37.247Z,33.03
2023-03-01T12:33:33.758Z,32.36
2023-03-01T12:36:19.432Z,31.92
2023-03-01T12:39:20.496Z,33.77
2023-03-01T12:42:15.041Z,34.05
2023-03-01T12:45:06.217Z,33.35
2023-03-01T12:47:49.484Z,32.47
2023-03-01T12:50:24.245Z,33.32
2023-03-01T12:52:57.727Z,33.94
2023-03-01T12:55:31.011Z,34.03
2023-03-01T12:58:25.618Z,32.53
2023-03-01T13:01:09.664Z,31.89
2023-03-01T13:04:03.810Z,33.58
2023-03-01T13:06:43.815Z,32.35
2023-03-01T13:09:32.958Z,33.96
2023-03-01T13:11:59.735Z,34.06
2023-03-01T13:14:26.742Z,33.79
2023-03-01T13:16:54.715Z,33.34
2023-03-01T13:19:30.800Z,34.14
2023-03-01T13:21:57.605Z,34.32
2023-03-01T13:24:45.432Z,34.57
2023-03-01T13:27:25.905Z,34.04
2023-03-01T13:29:57.753Z,33.76
2023-03-01T13:32:44.291Z,33.10
2023-03-01T13:35:11.976Z,33.35
2023-03-01T13:37:38.960Z,33.43
2023-03-01T13:40:25.714Z,33.75
2023-03-01T13:43:04.685Z,33.76
2023-03-01T13:45:41.326Z,33.84
2023-03-01T13:48:19.234Z,33.57
2023-03-01T13:51:01.743Z,32.57
2023-03-01T13:53:34.474Z,32.60
2023-03-01T13:56:12.085Z,32.05
2023-03-01T13:59:13.846Z,31.84
2023-03-01T14:01:43.379Z,32.14
2023-03-01T14:04:32.447Z,32.05
2023-03-01T14:07:20.913Z,32.06
2023-03-01T14:09:52.318Z,32.35
2023-03-01T14:12:37.797Z,31.91
2023-03-01T14:15:35.357Z,31.78
2023-03-01T14:18:08.266Z,31.96
2023-03-01T14:20:42.319Z,31.80
2023-03-01T14:23:19.333Z,31.99
2023-03-01T14:25:49.317Z,32.02
2023-03-01T14:28:20.122Z,32.13
2023-03-01T14:30:52.029Z,32.63
2023-03-01T14:33:20.848Z,32.92
2023-03-01T14:36:08.693Z,33.10
2023-03-01T14:38:41.280Z,33.46
2023-03-01T14:41:16.703Z,34.39
2023-03-01T14:44:19.282Z,34.39
2023-03-01T14:46:47.044Z,34.24
2023-03-01T14:49:28.017Z,34.41
2023-03-01T14:52:01.533Z,34.33
2023-03-01T14:54:43.982Z,34.21
2023-03-01T14:57:25.896Z,34.18
2023-03-01T14:59:55.665Z,34.55
2023-03-01T15:02:26.349Z,34.19
2023-03-01T15:04:58.661Z,34.15
2023-03-01T15:07:30.838Z,34.23
2023-03-01T15:09:58.328Z,33.85
2023-03-01T15:12:45.344Z,34.13
2023-03-01T15:15:31.081Z,34.65
2023-03-01T15:18:04.184Z,33.92
2023-03-01T15:20:36.335Z,33.89
2023-03-01T15:23:04.437Z,34.04
2023-03-01T15:25:33.460Z,33.99
2023-03-01T15:28:02.187Z,34.02
2023-03-01T15:30:41.135Z,34.35
2023-03-01T15:33:38.337Z,34.22
2023-03-01T15:36:34.086Z,34.81
2023-03-01T15:39:02.274Z,34.83
2023-03-01T15:41:33.295Z,34.90
2023-03-01T15:44:01.564Z,34.68
2023-03-01T15:46:33.653Z,34.78
2023-03-01T15:49:19.794Z,35.34
2023-03-01T15:51:46.815Z,35.44
2023-03-01T15:54:21.041Z,35.57
2023-03-01T15:56:48.372Z,35.73
2023-03-01T15:59:16.878Z,35.88
2023-03-01T16:01:44.095Z,35.73
2023-03-01T16:04:21.426Z,35.14
2023-03-01T16:06:55.184Z,35.45
2023-03-01T16:09:27.016Z,35.37
2023-03-01T16:11:54.362Z,35.52
2023-03-01T16:14:21.499Z,35.52
2023-03-01T16:16:49.306Z,35.33
2023-03-01T16:19:16.605Z,35.85
2023-03-01T16:21:47.806Z,35.69
2023-03-01T16:24:15.148Z,35.98
2023-03-01T16:26:43.142Z,36.09
2023-03-01T16:29:10.142Z,36.17
2023-03-01T16:31:37.079Z,36.16
2023-03-01T16:34:04.560Z,36.34
2023-03-01T16:36:31.552Z,36.33
2023-03-01T16:39:01.712Z,36.25
2023-03-01T16:41:28.922Z,36.48
2023-03-01T16:43:55.835Z,36.60
2023-03-01T16:46:25.715Z,36.94
2023-03-01T16:48:53.204Z,37.23
2023-03-01T16:51:21.492Z,37.12
2023-03-01T16:53:48.679Z,37.30
2023-03-01T16:56:15.863Z,37.30
2023-03-01T16:58:43.009Z,37.18
2023-03-01T17:01:18.764Z,37.50
2023-03-01T17:03:47.304Z,37.66
2023-03-01T17:06:17.178Z,37.75
2023-03-01T17:08:44.034Z,37.79
2023-03-01T17:11:14.342Z,37.82
2023-03-01T17:13:41.744Z,37.92
2023-03-01T17:16:10.685Z,38.00
2023-03-01T17:18:38.864Z,38.50
2023-03-01T17:21:07.048Z,38.42
2023-03-01T17:23:35.907Z,38.47
2023-03-01T17:26:03.690Z,38.88
2023-03-01T17:28:33.286Z,38.78
2023-03-01T17:31:01.957Z,38.86
2023-03-01T17:33:32.274Z,39.01
2023-03-01T17:36:00.041Z,39.16
2023-03-01T17:38:27.338Z,39.09
2023-03-01T17:40:54.145Z,39.42
2023-03-01T17:43:20.957Z,39.46
2023-03-01T17:45:48.858Z,39.45
2023-03-01T17:48:17.151Z,39.83
2023-03-01T17:50:44.852Z,39.84
2023-03-01T17:53:12.622Z,39.72
2023-03-01T17:55:41.475Z,39.71
2023-03-01T17:58:10.451Z,39.84
2023-03-01T18:00:37.577Z,39.92
2023-03-01T18:03:04.647Z,39.98
2023-03-01T18:05:36.294Z,40.20
2023-03-01T18:08:03.229Z,40.29
2023-03-01T18:10:31.221Z,40.41
2023-03-01T18:12:57.997Z,40.18
2023-03-01T18:15:24.786Z,40.41
2023-03-01T18:17:51.498Z,40.27
2023-03-01T18:20:19.065Z,40.38
2023-03-01T18:22:46.145Z,39.93
2023-03-01T18:25:13.322Z,40.23
2023-03-01T18:27:40.211Z,39.98
2023-03-01T18:30:08.699Z,39.47
2023-03-01T18:32:35.672Z,39.76
2023-03-01T18:35:02.537Z,39.71
2023-03-01T18:37:29.324Z,39.83
2023-03-01T18:39:56.115Z,39.69
2023-03-01T18:42:22.973Z,39.17
2023-03-01T18:44:50.005Z,39.43
2023-03-01T18:47:17.213Z,39.98
2023-03-01T18:49:44.393Z,39.87
2023-03-01T18:52:11.458Z,38.64
2023-03-01T18:54:38.330Z,38.25
2023-03-01T18:57:05.234Z,38.58
2023-03-01T18:59:32.570Z,38.29
2023-03-01T19:01:59.420Z,38.44
2023-03-01T19:04:27.343Z,37.97
2023-03-01T19:06:54.113Z,38.20
2023-03-01T19:09:21.194Z,38.13
2023-03-01T19:11:47.960Z,37.16
2023-03-01T19:14:14.769Z,37.13
2023-03-01T19:16:41.590Z,37.09
2023-03-01T19:19:10.164Z,37.42
2023-03-01T19:21:37.633Z,37.26
2023-03-01T19:24:04.981Z,37.25
2023-03-01T19:26:32.917Z,37.10
2023-03-01T19:29:00.212Z,37.46
2023-03-01T19:31:29.293Z,37.33
2023-03-01T19:34:10.543Z,37.51
2023-03-01T19:36:41.790Z,37.53
2023-03-01T19:39:10.028Z,37.64
2023-03-01T19:41:36.928Z,37.77
2023-03-01T19:44:05.838Z,37.83
2023-03-01T19:46:34.165Z,37.64
2023-03-01T19:49:03.131Z,37.88
2023-03-01T19:51:33.274Z,38.04
2023-03-01T19:54:00.117Z,37.84
2023-03-01T19:56:27.045Z,37.93
2023-03-01T19:59:00.346Z,37.77
2023-03-01T20:01:32.981Z,38.27
2023-03-01T20:04:00.993Z,38.06
2023-03-01T20:06:29.831Z,38.28
2023-03-01T20:08:56.885Z,38.98
2023-03-01T20:11:23.630Z,38.80
2023-03-01T20:13:50.475Z,38.83
2023-03-01T20:16:19.832Z,39.09
2023-03-01T20:18:46.854Z,39.62
2023-03-01T20:21:23.592Z,40.08
2023-03-01T20:23:51.603Z,40.13
2023-03-01T20:26:21.608Z,40.52
2023-03-01T20:28:51.731Z,40.03
2023-03-01T20:31:20.298Z,40.27
2023-03-01T20:33:47.577Z,40.04
2023-03-01T20:36:15.077Z,40.43
2023-03-01T20:38:41.799Z,40.80
2023-03-01T20:41:11.312Z,41.14
2023-03-01T20:43:38.918Z,41.01
2023-03-01T20:46:11.682Z,41.20
2023-03-01T20:48:42.907Z,41.52
2023-03-01T20:51:11.866Z,41.61
2023-03-01T20:53:38.954Z,41.32
2023-03-01T20:56:07.955Z,41.50
2023-03-01T20:58:35.775Z,41.23
2023-03-01T21:01:04.313Z,41.33
2023-03-01T21:03:31.732Z,41.05
2023-03-01T21:05:59.703Z,41.02
2023-03-01T21:08:26.849Z,41.28
2023-03-01T21:10:55.172Z,41.04
2023-03-01T21:13:24.439Z,41.06
2023-03-01T21:16:00.296Z,41.22
2023-03-01T21:18:29.984Z,41.11
2023-03-01T21:21:02.018Z,41.21
2023-03-01T21:23:30.178Z,41.59
2023-03-01T21:26:08.260Z,41.67
2023-03-01T21:28:36.161Z,42.47
2023-03-01T21:31:18.620Z,42.92
2023-03-01T21:33:48.230Z,43.72
2023-03-01T21:36:16.648Z,44.06
2023-03-01T21:38:46.344Z,44.49
2023-03-01T21:41:17.542Z,45.09
2023-03-01T21:43:45.782Z,45.29
2023-03-01T21:46:18.329Z,46.11
2023-03-01T21:48:46.772Z,46.09
2023-03-01T21:51:15.238Z,46.52
2023-03-01T21:53:42.545Z,47.29
2023-03-01T21:56:14.790Z,47.09
2023-03-01T21:58:41.660Z,46.96
2023-03-01T22:01:11.341Z,45.93
2023-03-01T22:03:45.314Z,45.19
2023-03-01T22:06:24.589Z,44.91
2023-03-01T22:08:55.274Z,44.75
2023-03-01T22:11:22.577Z,45.12
2023-03-01T22:13:52.346Z,44.51
2023-03-01T22:16:25.141Z,44.78
2023-03-01T22:18:52.297Z,44.92
2023-03-01T22:21:19.596Z,44.72
2023-03-01T22:23:46.470Z,44.83
2023-03-01T22:26:26.938Z,44.97
2023-03-01T22:28:55.727Z,44.75
2023-03-01T22:31:23.051Z,45.09
2023-03-01T22:33:50.888Z,45.26
2023-03-01T22:36:17.904Z,45.36
2023-03-01T22:38:45.002Z,45.16
2023-03-01T22:41:11.960Z,45.44
2023-03-01T22:43:38.896Z,45.76
2023-03-01T22:46:18.716Z,45.60
2023-03-01T22:48:46.756Z,46.03
2023-03-01T22:51:16.284Z,46.13
2023-03-01T22:53:43.381Z,46.45
2023-03-01T22:56:15.572Z,46.52
2023-03-01T22:58:43.127Z,46.72
2023-03-01T23:01:14.827Z,46.60
2023-03-01T23:03:41.760Z,46.86
2023-03-01T23:06:09.162Z,47.07
2023-03-01T23:08:36.131Z,47.07
2023-03-01T23:11:03.873Z,47.13
2023-03-01T23:13:30.558Z,47.14
2023-03-01T23:15:57.877Z,47.62
2023-03-01T23:18:24.678Z,47.67
2023-03-01T23:20:51.553Z,47.42
2023-03-01T23:23:18.293Z,47.53
2023-03-01T23:25:56.589Z,47.36
2023-03-01T23:28:24.691Z,47.66
2023-03-01T23:31:02.693Z,47.37
2023-03-01T23:33:37.623Z,47.34
2023-03-01T23:36:05.648Z,47.61
2023-03-01T23:38:32.412Z,47.83
2023-03-01T23:40:59.928Z,47.54
2023-03-01T23:43:26.781Z,47.79
2023-03-01T23:45:54.303Z,48.17
2023-03-01T23:48:21.179Z,48.26
2023-03-01T23:50:48.901Z,49.12
2023-03-01T23:53:18.037Z,48.97
2023-03-01T23:55:47.503Z,49.29
2023-03-01T23:58:14.437Z,49.70
